Time;durP1;ratioP1;P1;durP2;ratioP2;P2;SDS_P1;SDS_P2;PMS_P1;PMS_P2;Temp;Humidity;BMP_temperature;BMP_pressure;BME280_temperature;BME280_humidity;BME280_pressure;Samples;Min_cycle;Max_cycle;Signal;HPM_P1;HPM_P2
2023/11/18 00:01:30;;;;;;;1.67;1.58;;;4.40;99.90;;;;;;4945055;28;20035;-73
2023/11/18 00:03:56;;;;;;;1.60;1.50;;;4.40;99.90;;;;;;4977824;28;20404;-73
2023/11/18 00:06:22;;;;;;;3.13;2.03;;;4.40;99.90;;;;;;4975374;28;20030;-74
2023/11/18 00:08:47;;;;;;;3.00;1.73;;;4.40;99.90;;;;;;4980827;28;20482;-73
2023/11/18 00:11:13;;;;;;;1.70;1.60;;;4.40;99.90;;;;;;4961232;28;20035;-73
2023/11/18 00:13:39;;;;;;;1.98;1.73;;;4.40;99.90;;;;;;4963398;28;20222;-74
2023/11/18 00:16:06;;;;;;;1.52;1.42;;;4.30;99.90;;;;;;4975646;28;20022;-73
2023/11/18 00:18:32;;;;;;;1.80;1.70;;;4.30;99.90;;;;;;4972749;28;20018;-75
2023/11/18 00:20:59;;;;;;;1.20;1.20;;;4.30;99.90;;;;;;4964608;28;20550;-73
2023/11/18 00:23:36;;;;;;;1.77;1.67;;;4.20;99.90;;;;;;4981274;28;20038;-73
2023/11/18 00:26:10;;;;;;;1.75;1.63;;;4.30;99.90;;;;;;4977260;28;20050;-74
2023/11/18 00:28:41;;;;;;;1.13;1.13;;;4.30;99.90;;;;;;4979229;28;20581;-75
2023/11/18 00:31:07;;;;;;;1.88;1.77;;;4.30;99.90;;;;;;4967869;28;20046;-74
2023/11/18 00:33:36;;;;;;;1.65;1.55;;;4.30;99.90;;;;;;4977378;28;20023;-75
2023/11/18 00:36:02;;;;;;;1.83;1.73;;;4.30;99.90;;;;;;4981369;28;20440;-74
2023/11/18 00:38:31;;;;;;;0.95;0.95;;;4.20;99.90;;;;;;4955945;28;20034;-75
2023/11/18 00:40:56;;;;;;;;;;;4.20;99.90;;;;;;4984401;28;20031;-73
2023/11/18 00:43:22;;;;;;;1.33;1.27;;;4.20;99.90;;;;;;4986706;28;19957;-75
2023/11/18 00:45:54;;;;;;;1.73;1.60;;;4.20;99.90;;;;;;4983212;28;20062;-75
2023/11/18 00:48:20;;;;;;;1.92;1.83;;;4.20;99.90;;;;;;4986133;28;20038;-76
2023/11/18 00:50:46;;;;;;;3.35;1.80;;;4.20;99.90;;;;;;4985688;28;20091;-76
2023/11/18 00:53:11;;;;;;;1.95;1.75;;;4.30;99.90;;;;;;4985875;28;20034;-75
2023/11/18 00:55:37;;;;;;;3.53;1.80;;;4.30;99.90;;;;;;4973134;28;20011;-77
2023/11/18 00:58:04;;;;;;;3.42;1.50;;;4.30;99.90;;;;;;4971022;28;20003;-77
2023/11/18 01:00:30;;;;;;;1.77;1.65;;;4.30;99.90;;;;;;4981982;28;20042;-74
2023/11/18 01:02:56;;;;;;;1.67;1.50;;;4.30;99.90;;;;;;4991461;28;20035;-75
2023/11/18 01:05:22;;;;;;;2.17;1.98;;;4.30;99.90;;;;;;4984786;28;20039;-76
2023/11/18 01:07:48;;;;;;;1.48;1.38;;;4.30;99.90;;;;;;4992644;28;20102;-75
2023/11/18 01:10:14;;;;;;;2.13;1.55;;;4.30;99.90;;;;;;4986795;28;20103;-77
2023/11/18 01:12:40;;;;;;;1.80;1.67;;;4.30;99.90;;;;;;4991192;28;20031;-75
2023/11/18 01:15:07;;;;;;;3.20;2.17;;;4.40;99.90;;;;;;4990477;28;20041;-75
2023/11/18 01:17:33;;;;;;;2.72;1.88;;;4.40;99.90;;;;;;4992140;28;20066;-75
2023/11/18 01:20:02;;;;;;;1.85;1.60;;;4.40;99.90;;;;;;4989208;28;20023;-75
2023/11/18 01:22:29;;;;;;;2.03;1.90;;;4.40;99.90;;;;;;4971521;28;20045;-74
2023/11/18 01:25:01;;;;;;;2.55;2.00;;;4.40;99.90;;;;;;4964690;28;20032;-74
2023/11/18 01:27:27;;;;;;;2.05;1.83;;;4.40;99.90;;;;;;4969060;28;20523;-74
2023/11/18 01:29:52;;;;;;;1.85;1.75;;;4.40;99.90;;;;;;4977485;28;20030;-74
2023/11/18 01:32:18;;;;;;;2.03;1.80;;;4.40;99.90;;;;;;4970038;28;20261;-74
2023/11/18 01:34:49;;;;;;;2.72;2.13;;;4.40;99.90;;;;;;4956316;28;20027;-74
2023/11/18 01:37:16;;;;;;;2.25;1.80;;;4.40;99.90;;;;;;4979626;28;20038;-74
2023/11/18 01:39:41;;;;;;;2.60;2.30;;;4.40;99.90;;;;;;4966473;28;20023;-74
2023/11/18 01:42:07;;;;;;;1.60;1.50;;;4.40;99.90;;;;;;4968578;28;20043;-74
2023/11/18 01:44:35;;;;;;;1.67;1.58;;;4.40;99.90;;;;;;4966506;28;20023;-74
2023/11/18 01:47:05;;;;;;;1.85;1.75;;;4.30;99.90;;;;;;4971616;28;20058;-74
2023/11/18 01:49:38;;;;;;;1.77;1.67;;;4.40;99.90;;;;;;4972834;28;20042;-74
2023/11/18 01:52:07;;;;;;;2.17;1.67;;;4.40;99.90;;;;;;4958019;28;20122;-74
2023/11/18 01:54:34;;;;;;;1.90;1.80;;;4.40;99.90;;;;;;4974173;28;20022;-76
2023/11/18 01:57:05;;;;;;;2.25;2.05;;;4.40;99.90;;;;;;4958755;28;20844;-73
2023/11/18 01:59:33;;;;;;;2.92;2.05;;;4.40;99.90;;;;;;4962494;28;20082;-74
2023/11/18 02:02:05;;;;;;;2.30;2.10;;;4.30;99.90;;;;;;4965332;28;20574;-74
2023/11/18 02:04:31;;;;;;;2.20;2.00;;;4.30;99.90;;;;;;4957004;28;20086;-75
2023/11/18 02:07:03;;;;;;;1.83;1.73;;;4.20;99.90;;;;;;4973072;28;20503;-73
2023/11/18 02:09:30;;;;;;;2.40;1.75;;;4.20;99.90;;;;;;4975435;28;20054;-74
2023/11/18 02:12:04;;;;;;;2.67;1.90;;;4.10;99.90;;;;;;4977127;28;20027;-74
2023/11/18 02:14:37;;;;;;;2.08;1.60;;;4.20;99.90;;;;;;4966578;28;20019;-75
2023/11/18 02:17:04;;;;;;;2.42;1.77;;;4.10;99.90;;;;;;4965938;28;20035;-74
2023/11/18 02:19:41;;;;;;;2.00;1.90;;;4.10;99.90;;;;;;4964832;28;20031;-73
2023/11/18 02:22:11;;;;;;;2.10;1.85;;;4.10;99.90;;;;;;4952106;28;20613;-73
2023/11/18 02:24:41;;;;;;;1.70;1.60;;;4.00;99.90;;;;;;4955371;28;20403;-73
2023/11/18 02:27:06;;;;;;;2.00;1.80;;;3.90;99.90;;;;;;4959044;28;20098;-73
2023/11/18 02:29:45;;;;;;;2.63;2.03;;;3.90;99.90;;;;;;4974472;28;20062;-74
2023/11/18 02:32:34;;;;;;;2.13;1.92;;;3.90;99.90;;;;;;4964243;28;20081;-74
2023/11/18 02:35:23;;;;;;;2.22;1.95;;;3.80;99.90;;;;;;4977173;28;20030;-74
2023/11/18 02:37:54;;;;;;;2.35;2.15;;;3.80;99.90;;;;;;4970310;28;20066;-74
2023/11/18 02:40:32;;;;;;;2.35;2.17;;;3.80;99.90;;;;;;4969172;28;20031;-74
2023/11/18 02:43:03;;;;;;;4.10;2.22;;;3.80;99.90;;;;;;4974455;28;20062;-75
2023/11/18 02:45:31;;;;;;;2.20;2.00;;;3.80;99.90;;;;;;4980748;28;20045;-74
2023/11/18 02:48:00;;;;;;;1.88;1.73;;;3.80;99.90;;;;;;4990388;28;20045;-75
2023/11/18 02:50:29;;;;;;;2.38;2.17;;;3.70;99.90;;;;;;4964143;28;20038;-75
2023/11/18 02:52:55;;;;;;;2.67;1.85;;;3.70;99.90;;;;;;4980144;28;20022;-73
2023/11/18 02:55:25;;;;;;;2.22;2.10;;;3.70;99.90;;;;;;4982446;28;20019;-72
2023/11/18 02:57:57;;;;;;;2.40;2.28;;;3.70;99.90;;;;;;4983129;28;20031;-73
2023/11/18 03:00:23;;;;;;;2.47;2.17;;;3.80;99.90;;;;;;4981236;28;20034;-73
2023/11/18 03:02:50;;;;;;;1.75;1.65;;;3.70;99.90;;;;;;4991585;28;20093;-73
2023/11/18 03:05:22;;;;;;;3.47;2.58;;;3.80;99.90;;;;;;4968799;28;20037;-76
2023/11/18 03:07:53;;;;;;;3.55;2.75;;;3.80;99.90;;;;;;4982811;28;20042;-74
2023/11/18 03:10:22;;;;;;;2.97;2.60;;;3.80;99.90;;;;;;4977322;28;20291;-73
2023/11/18 03:12:57;;;;;;;2.00;1.88;;;3.80;99.90;;;;;;4970348;28;20027;-74
2023/11/18 03:15:28;;;;;;;3.65;2.75;;;3.80;99.90;;;;;;4968193;28;20029;-77
2023/11/18 03:17:57;;;;;;;2.78;2.58;;;3.90;99.90;;;;;;4979710;28;20082;-74
2023/11/18 03:20:23;;;;;;;;;;;3.90;99.90;;;;;;4970622;28;20074;-76
2023/11/18 03:22:59;;;;;;;2.45;2.22;;;3.90;99.90;;;;;;4986372;28;19894;-75
2023/11/18 03:25:25;;;;;;;2.75;2.50;;;3.90;99.90;;;;;;4980107;28;20046;-73
2023/11/18 03:27:54;;;;;;;1.90;1.80;;;4.00;99.90;;;;;;4972960;28;20117;-73
2023/11/18 03:30:26;;;;;;;2.45;2.25;;;4.10;99.90;;;;;;4966414;28;20399;-74
2023/11/18 03:32:51;;;;;;;2.33;2.13;;;4.10;99.90;;;;;;4971288;28;20026;-74
2023/11/18 03:35:17;;;;;;;2.65;2.40;;;4.10;99.90;;;;;;4988161;28;20049;-75
2023/11/18 03:37:43;;;;;;;2.42;2.17;;;4.10;99.90;;;;;;4983249;28;20031;-74
2023/11/18 03:40:11;;;;;;;2.78;2.35;;;4.10;99.90;;;;;;4984273;28;20082;-75
2023/11/18 03:42:37;;;;;;;4.10;2.70;;;4.10;99.90;;;;;;4973512;28;20031;-73
2023/11/18 03:45:04;;;;;;;2.90;2.30;;;4.10;99.90;;;;;;4965700;28;20073;-73
2023/11/18 03:47:30;;;;;;;4.00;2.53;;;4.20;99.90;;;;;;4959810;28;20575;-73
2023/11/18 03:49:56;;;;;;;3.25;2.65;;;4.20;99.90;;;;;;4961969;28;20073;-73
2023/11/18 03:52:27;;;;;;;3.40;3.08;;;4.20;99.90;;;;;;4972755;28;20089;-73
2023/11/18 03:54:56;;;;;;;3.45;2.60;;;4.20;99.90;;;;;;4989941;28;20022;-74
2023/11/18 03:57:21;;;;;;;3.40;2.40;;;4.10;99.90;;;;;;4995454;28;20033;-74
2023/11/18 03:59:47;;;;;;;3.30;2.60;;;4.10;99.90;;;;;;4964554;28;20035;-73
2023/11/18 04:02:15;;;;;;;4.15;2.25;;;4.10;99.90;;;;;;4965243;28;20108;-73
2023/11/18 04:04:41;;;;;;;2.95;2.17;;;4.20;99.90;;;;;;4985915;28;20069;-75
2023/11/18 04:07:09;;;;;;;4.15;2.72;;;4.20;99.90;;;;;;4991329;28;20635;-74
2023/11/18 04:09:34;;;;;;;3.03;2.50;;;4.20;99.90;;;;;;4989081;28;20047;-75
2023/11/18 04:12:00;;;;;;;3.17;2.80;;;4.20;99.90;;;;;;4967029;28;20039;-75
2023/11/18 04:14:26;;;;;;;2.13;1.92;;;4.20;99.90;;;;;;4984193;28;20061;-74
2023/11/18 04:16:55;;;;;;;4.47;2.63;;;4.30;99.90;;;;;;4986582;28;20109;-75
2023/11/18 04:19:21;;;;;;;;;;;4.30;99.90;;;;;;4970059;28;20027;-73
2023/11/18 04:21:50;;;;;;;3.58;2.33;;;4.30;99.90;;;;;;4978917;28;19936;-73
2023/11/18 04:24:16;;;;;;;6.05;2.92;;;4.30;99.90;;;;;;4989860;28;20026;-74
2023/11/18 04:26:42;;;;;;;4.18;2.60;;;4.40;99.90;;;;;;4982839;28;20046;-74
2023/11/18 04:29:13;;;;;;;2.75;2.55;;;4.40;99.90;;;;;;4991823;28;20049;-75
2023/11/18 04:31:40;;;;;;;2.67;2.47;;;4.40;99.90;;;;;;4969111;28;20098;-75
2023/11/18 04:34:06;;;;;;;3.00;2.70;;;4.40;99.90;;;;;;4968056;28;20508;-75
2023/11/18 04:36:32;;;;;;;4.18;2.65;;;4.40;99.90;;;;;;4974791;28;20030;-74
2023/11/18 04:39:01;;;;;;;3.10;2.42;;;4.50;99.90;;;;;;4964226;28;20070;-75
2023/11/18 04:41:27;;;;;;;3.45;2.90;;;4.40;99.90;;;;;;4981477;28;20127;-76
2023/11/18 04:43:59;;;;;;;2.60;2.28;;;4.40;99.90;;;;;;4966850;28;20357;-76
2023/11/18 04:46:25;;;;;;;3.05;2.50;;;4.50;99.90;;;;;;4977983;28;20045;-73
2023/11/18 04:48:53;;;;;;;3.15;2.60;;;4.40;99.90;;;;;;4985575;28;20082;-75
2023/11/18 04:51:22;;;;;;;3.28;2.72;;;4.40;99.90;;;;;;4968725;28;20046;-74
2023/11/18 04:53:51;;;;;;;3.78;2.65;;;4.40;99.90;;;;;;4975637;28;20019;-74
2023/11/18 04:56:18;;;;;;;;;;;4.40;99.90;;;;;;4974809;28;20019;-73
2023/11/18 04:58:46;;;;;;;3.20;2.75;;;4.50;99.90;;;;;;4971399;28;19918;-73
2023/11/18 05:01:15;;;;;;;;;;;4.40;99.90;;;;;;4960178;28;20035;-73
2023/11/18 05:03:44;;;;;;;2.42;2.22;;;4.40;99.90;;;;;;4953272;28;19929;-73
2023/11/18 05:06:10;;;;;;;3.13;2.60;;;4.40;99.90;;;;;;4948878;28;20043;-73
2023/11/18 05:08:36;;;;;;;3.13;2.88;;;4.40;99.90;;;;;;4963488;28;20429;-73
2023/11/18 05:11:04;;;;;;;2.47;2.28;;;4.40;99.90;;;;;;4942893;28;20512;-74
2023/11/18 05:13:41;;;;;;;3.67;3.13;;;4.40;99.90;;;;;;4966232;28;20034;-73
2023/11/18 05:16:10;;;;;;;4.45;3.13;;;4.40;99.90;;;;;;4966348;28;20559;-74
2023/11/18 05:18:40;;;;;;;2.75;2.55;;;4.40;99.90;;;;;;4965709;28;20121;-73
2023/11/18 05:21:10;;;;;;;3.40;3.08;;;4.50;99.90;;;;;;4969751;28;20030;-74
2023/11/18 05:23:36;;;;;;;3.38;2.90;;;4.50;99.90;;;;;;4958933;28;20046;-75
2023/11/18 05:26:09;;;;;;;3.40;2.97;;;4.50;99.90;;;;;;4969917;28;20400;-73
2023/11/18 05:28:35;;;;;;;3.13;2.53;;;4.50;99.90;;;;;;4956309;28;20035;-74
2023/11/18 05:31:02;;;;;;;3.17;2.65;;;4.50;99.90;;;;;;4942710;28;20536;-73
2023/11/18 05:33:28;;;;;;;4.13;2.85;;;4.40;99.90;;;;;;4956242;28;20038;-73
2023/11/18 05:35:54;;;;;;;3.28;2.70;;;4.50;99.90;;;;;;4964996;28;20023;-74
2023/11/18 05:38:27;;;;;;;3.97;2.67;;;4.50;99.90;;;;;;4972883;28;20046;-73
2023/11/18 05:41:01;;;;;;;2.88;2.58;;;4.50;99.90;;;;;;4949328;28;20055;-73
2023/11/18 05:43:40;;;;;;;2.67;2.47;;;4.50;99.90;;;;;;4969992;28;20610;-74
2023/11/18 05:46:24;;;;;;;3.15;2.72;;;4.40;99.90;;;;;;4970901;28;20062;-73
2023/11/18 05:48:50;;;;;;;4.40;2.90;;;4.50;99.90;;;;;;4955261;28;20038;-73
2023/11/18 05:51:26;;;;;;;3.85;2.85;;;4.50;99.90;;;;;;4950322;28;20065;-73
2023/11/18 05:53:52;;;;;;;2.80;2.33;;;4.50;99.90;;;;;;4973154;28;20173;-73
2023/11/18 05:56:25;;;;;;;3.85;2.72;;;4.50;99.90;;;;;;4965472;28;20568;-73
2023/11/18 05:58:55;;;;;;;3.92;3.03;;;4.50;99.90;;;;;;4952355;28;20038;-73
2023/11/18 06:01:21;;;;;;;6.93;3.00;;;4.50;99.90;;;;;;4953594;28;20027;-73
2023/11/18 06:03:46;;;;;;;3.42;2.67;;;4.50;99.90;;;;;;4972986;28;20114;-72
2023/11/18 06:06:16;;;;;;;3.17;2.47;;;4.50;99.90;;;;;;4970998;28;20026;-75
2023/11/18 06:08:42;;;;;;;3.38;3.08;;;4.50;99.90;;;;;;4971143;28;20039;-73
2023/11/18 06:11:13;;;;;;;4.57;3.25;;;4.50;99.90;;;;;;4962943;28;20598;-74
2023/11/18 06:13:49;;;;;;;3.30;2.97;;;4.50;99.90;;;;;;4962476;28;20066;-73
2023/11/18 06:16:24;;;;;;;8.75;3.30;;;4.50;99.90;;;;;;4972741;28;20039;-75
2023/11/18 06:18:55;;;;;;;5.55;3.88;;;4.50;99.90;;;;;;4948940;28;20035;-74
2023/11/18 06:21:28;;;;;;;6.78;4.90;;;4.50;99.90;;;;;;4975645;28;20023;-74
2023/11/18 06:23:57;;;;;;;4.30;3.83;;;4.50;99.90;;;;;;4969217;28;20432;-76
2023/11/18 06:26:26;;;;;;;4.28;3.40;;;4.50;99.90;;;;;;4955176;28;20387;-73
2023/11/18 06:29:01;;;;;;;3.92;2.92;;;4.50;99.90;;;;;;4967777;28;20143;-74
2023/11/18 06:31:29;;;;;;;4.32;3.20;;;4.50;99.90;;;;;;4961102;28;20047;-73
2023/11/18 06:33:58;;;;;;;4.50;2.83;;;4.50;99.90;;;;;;4967292;28;20362;-73
2023/11/18 06:36:26;;;;;;;3.20;2.90;;;4.50;99.90;;;;;;4973337;28;20161;-73
2023/11/18 06:38:53;;;;;;;4.55;3.20;;;4.50;99.90;;;;;;4967599;28;20039;-74
2023/11/18 06:41:23;;;;;;;4.38;3.08;;;4.50;99.90;;;;;;4969677;28;20054;-75
2023/11/18 06:46:24;;;;;;;4.00;3.53;;;4.50;99.90;;;;;;4986315;28;20022;-75
2023/11/18 06:48:54;;;;;;;6.82;3.75;;;4.50;99.90;;;;;;4974153;28;20058;-76
2023/11/18 06:51:24;;;;;;;4.82;2.85;;;4.50;99.90;;;;;;4961520;28;20030;-74
2023/11/18 06:53:57;;;;;;;4.18;3.10;;;4.60;99.90;;;;;;4983033;28;20146;-75
2023/11/18 06:56:30;;;;;;;3.10;2.63;;;4.60;99.90;;;;;;4967176;28;20042;-73
2023/11/18 06:58:58;;;;;;;4.63;3.65;;;4.60;99.90;;;;;;4978975;28;20050;-73
2023/11/18 07:01:29;;;;;;;;;;;4.60;99.90;;;;;;4979547;28;20039;-74
2023/11/18 07:03:58;;;;;;;4.28;3.10;;;4.60;99.90;;;;;;4976169;28;19913;-74
2023/11/18 07:06:26;;;;;;;4.13;3.15;;;4.60;99.90;;;;;;4982890;28;20046;-73
2023/11/18 07:08:53;;;;;;;3.70;3.38;;;4.70;99.90;;;;;;4970694;28;20031;-74
2023/11/18 07:11:22;;;;;;;3.85;3.40;;;4.60;99.90;;;;;;4983282;28;20129;-75
2023/11/18 07:13:56;;;;;;;3.13;2.85;;;4.60;99.90;;;;;;4959214;28;20717;-74
2023/11/18 07:16:23;;;;;;;4.90;3.33;;;4.60;99.90;;;;;;4953037;29;20023;-74
2023/11/18 07:18:55;;;;;;;5.30;3.80;;;4.60;99.90;;;;;;4962129;28;20049;-74
2023/11/18 07:21:21;;;;;;;5.85;3.97;;;4.70;99.90;;;;;;4965858;28;20022;-74
2023/11/18 07:23:50;;;;;;;4.25;3.47;;;4.70;99.90;;;;;;4965673;28;20039;-74
2023/11/18 07:26:15;;;;;;;4.03;3.50;;;4.70;99.90;;;;;;4969636;28;20035;-74
2023/11/18 07:28:44;;;;;;;6.55;4.20;;;4.80;99.90;;;;;;4965715;28;20144;-74
2023/11/18 07:31:10;;;;;;;5.00;4.13;;;4.80;99.90;;;;;;4952231;28;20602;-73
2023/11/18 07:33:36;;;;;;;4.18;3.33;;;4.80;99.90;;;;;;4955519;28;20030;-72
2023/11/18 07:36:06;;;;;;;5.72;4.15;;;4.80;99.90;;;;;;4969354;28;20116;-75
2023/11/18 07:38:35;;;;;;;4.55;3.40;;;4.80;99.90;;;;;;4970672;28;20785;-74
2023/11/18 07:41:02;;;;;;;6.15;4.97;;;4.90;99.90;;;;;;4964288;28;20038;-74
2023/11/18 07:43:36;;;;;;;9.87;5.70;;;4.90;99.90;;;;;;4948179;28;20057;-73
2023/11/18 07:46:03;;;;;;;6.03;4.53;;;4.90;99.90;;;;;;4962584;28;20043;-74
2023/11/18 07:48:31;;;;;;;5.85;3.85;;;5.00;99.90;;;;;;4964437;28;20031;-74
2023/11/18 07:50:57;;;;;;;5.43;4.30;;;5.00;99.90;;;;;;4943346;28;20054;-73
2023/11/18 07:53:29;;;;;;;5.72;3.47;;;5.10;99.90;;;;;;4971817;28;20518;-73
2023/11/18 07:55:55;;;;;;;5.28;4.05;;;5.10;99.90;;;;;;4971425;28;20492;-74
2023/11/18 07:58:31;;;;;;;7.03;3.75;;;5.20;99.90;;;;;;4951482;28;20057;-74
2023/11/18 08:00:59;;;;;;;4.97;3.65;;;5.20;99.90;;;;;;4937801;28;20046;-73
2023/11/18 08:03:24;;;;;;;5.35;3.50;;;5.20;99.90;;;;;;4965962;28;20507;-73
2023/11/18 08:05:51;;;;;;;5.80;3.85;;;5.20;99.90;;;;;;4970083;28;20034;-74
2023/11/18 08:08:20;;;;;;;4.10;3.40;;;5.20;99.90;;;;;;4974047;28;20080;-73
2023/11/18 08:10:48;;;;;;;5.13;3.55;;;5.20;99.90;;;;;;4964598;28;20133;-74
2023/11/18 08:13:13;;;;;;;6.55;3.70;;;5.20;99.90;;;;;;4955215;28;20042;-74
2023/11/18 08:16:01;;;;;;;5.05;3.50;;;5.20;99.90;;;;;;4957530;28;20646;-74
2023/11/18 08:18:27;;;;;;;4.10;3.30;;;5.30;99.90;;;;;;4965905;28;20038;-74
2023/11/18 08:20:53;;;;;;;5.82;4.00;;;5.30;99.90;;;;;;4947809;28;20074;-73
2023/11/18 08:23:19;;;;;;;4.15;3.40;;;5.30;99.90;;;;;;4959549;28;20027;-75
2023/11/18 08:25:49;;;;;;;5.20;3.50;;;5.30;99.90;;;;;;4963449;28;20042;-74
2023/11/18 08:28:16;;;;;;;5.70;3.65;;;5.40;99.90;;;;;;4960966;28;20023;-74
2023/11/18 08:30:41;;;;;;;6.78;3.63;;;5.50;99.90;;;;;;4966701;28;20098;-76
2023/11/18 08:33:29;;;;;;;6.30;3.70;;;5.50;99.90;;;;;;4961908;28;20031;-75
2023/11/18 08:35:56;;;;;;;6.72;4.70;;;5.50;99.90;;;;;;4960377;28;20057;-75
2023/11/18 08:38:22;;;;;;;6.70;3.85;;;5.50;99.90;;;;;;4977295;28;20030;-74
2023/11/18 08:41:09;;;;;;;6.40;3.80;;;5.60;99.90;;;;;;4993031;28;20094;-74
2023/11/18 08:43:46;;;;;;;5.88;4.00;;;5.70;99.90;;;;;;4984040;28;20113;-73
2023/11/18 08:46:13;;;;;;;5.07;4.03;;;5.70;99.90;;;;;;4967144;28;20352;-75
2023/11/18 08:48:46;;;;;;;8.63;4.18;;;5.80;99.90;;;;;;4984196;28;20482;-73
2023/11/18 08:51:13;;;;;;;5.38;4.15;;;5.80;99.90;;;;;;4987366;28;20030;-75
2023/11/18 08:53:42;;;;;;;6.25;3.97;;;5.80;99.90;;;;;;4980395;28;20412;-73
2023/11/18 08:56:13;;;;;;;;;;;5.90;99.90;;;;;;4985592;28;20026;-74
2023/11/18 08:58:51;;;;;;;5.88;3.88;;;6.00;99.90;;;;;;4957940;28;19914;-74
2023/11/18 09:01:17;;;;;;;4.70;3.45;;;6.00;99.90;;;;;;4951252;28;20043;-73
2023/11/18 09:03:48;;;;;;;6.25;4.18;;;6.00;99.90;;;;;;4961628;28;20029;-74
2023/11/18 09:06:18;;;;;;;6.22;4.55;;;6.00;99.90;;;;;;4965273;28;20133;-73
2023/11/18 09:09:12;;;;;;;6.07;3.83;;;6.10;99.90;;;;;;4966612;28;20487;-75
2023/11/18 09:11:42;;;;;;;4.65;3.65;;;6.20;99.90;;;;;;4943213;28;20046;-73
2023/11/18 09:14:14;;;;;;;4.95;4.05;;;6.20;99.90;;;;;;4947876;28;20055;-75
2023/11/18 09:16:41;;;;;;;5.75;4.03;;;6.30;99.90;;;;;;4946612;28;20023;-74
2023/11/18 09:19:07;;;;;;;5.60;3.97;;;6.30;99.90;;;;;;4932753;28;20230;-74
2023/11/18 09:21:48;;;;;;;5.32;3.75;;;6.30;99.90;;;;;;4954702;28;20431;-75
2023/11/18 09:24:19;;;;;;;5.55;4.05;;;6.30;99.90;;;;;;4943378;29;20023;-74
2023/11/18 09:27:17;;;;;;;3.83;3.42;;;6.30;99.90;;;;;;4954424;28;20042;-74
2023/11/18 09:29:51;;;;;;;3.42;3.13;;;6.30;99.90;;;;;;4947588;29;20062;-75
2023/11/18 09:40:26;;;;;;;;;;;;;;;;;;;;;
2023/11/18 09:43:41;;;;;;;4.38;3.28;;;6.30;99.90;;;;;;4765266;30;20039;-74
2023/11/18 09:58:12;;;;;;;;;;;;;;;;;;;;;
2023/11/18 10:01:18;;;;;;;4.10;2.95;;;6.50;99.90;;;;;;4774331;29;20046;-74
2023/11/18 10:03:49;;;;;;;5.30;3.50;;;6.40;99.90;;;;;;4786598;29;20130;-74
2023/11/18 10:06:16;;;;;;;3.53;3.08;;;6.50;99.90;;;;;;4836919;29;20061;-73
2023/11/18 10:08:49;;;;;;;4.07;2.97;;;6.50;99.90;;;;;;4945509;28;20023;-77
2023/11/18 10:11:23;;;;;;;3.42;3.10;;;6.60;99.90;;;;;;4965452;28;20039;-79
2023/11/18 10:13:54;;;;;;;5.90;3.72;;;6.60;99.90;;;;;;4964613;28;20050;-74
2023/11/18 10:16:30;;;;;;;3.75;3.28;;;6.60;99.90;;;;;;4967295;28;20030;-74
2023/11/18 10:19:00;;;;;;;4.65;3.40;;;6.60;99.90;;;;;;4978267;28;20161;-74
2023/11/18 10:21:39;;;;;;;3.88;3.15;;;6.70;99.90;;;;;;4966518;28;20026;-74
2023/11/18 10:24:14;;;;;;;3.95;3.17;;;6.70;99.90;;;;;;4968126;28;20041;-73
2023/11/18 10:30:25;;;;;;;4.88;3.08;;;6.70;99.90;;;;;;4978623;28;20445;-74
2023/11/18 10:36:41;;;;;;;3.15;2.70;;;6.90;99.90;;;;;;4952369;28;20849;-73
2023/11/18 10:39:19;;;;;;;2.75;2.55;;;6.90;99.90;;;;;;4980696;28;20077;-74
2023/11/18 10:42:32;;;;;;;3.28;2.83;;;6.80;99.90;;;;;;4969226;28;20034;-73
2023/11/18 10:46:00;;;;;;;4.38;2.97;;;6.70;99.90;;;;;;4974343;28;20029;-73
2023/11/18 10:48:55;;;;;;;3.80;3.10;;;6.60;99.90;;;;;;4975367;28;20026;-73
2023/11/18 10:51:38;;;;;;;4.78;3.53;;;6.60;99.90;;;;;;4975143;28;20106;-75
2023/11/18 10:54:17;;;;;;;4.88;3.35;;;6.60;99.90;;;;;;4958224;28;20090;-75
2023/11/18 10:57:07;;;;;;;4.43;3.45;;;6.70;99.90;;;;;;4948808;28;20034;-73
2023/11/18 11:00:29;;;;;;;;;;;;;;;;;;;;;
2023/11/18 11:03:33;;;;;;;3.30;3.00;;;6.70;99.90;;;;;;4872070;29;20105;-74
2023/11/18 11:14:06;;;;;;;2.50;2.30;;;6.90;99.90;;;;;;4895121;28;20446;-74
2023/11/18 11:17:29;;;;;;;2.88;2.00;;;7.00;99.90;;;;;;4957328;28;20031;-74
2023/11/18 11:27:51;;;;;;;;;;;;;;;;;;;;;
2023/11/18 11:31:13;;;;;;;5.38;2.30;;;7.20;99.90;;;;;;4901892;29;20173;-73
2023/11/18 11:34:13;;;;;;;3.25;2.25;;;7.30;99.90;;;;;;4859072;29;20619;-73
2023/11/18 11:37:18;;;;;;;2.00;1.77;;;7.30;99.90;;;;;;4821225;29;20034;-73
2023/11/18 11:40:22;;;;;;;2.30;2.10;;;7.40;99.90;;;;;;4882891;29;20064;-74
2023/11/18 11:47:02;;;;;;;;;;;;;;;;;;;;;
2023/11/18 11:53:57;;;;;;;5.00;2.22;;;7.40;99.90;;;;;;4907476;29;20146;-73
2023/11/18 11:57:18;;;;;;;3.45;2.38;;;7.50;99.90;;;;;;4874491;29;20039;-72
2023/11/18 12:03:17;;;;;;;2.50;2.15;;;7.60;99.90;;;;;;4923383;28;20055;-74
2023/11/18 12:17:34;;;;;;;;;;;;;;;;;;;;;
2023/11/18 12:36:07;;;;;;;2.50;2.17;;;7.80;99.90;;;;;;4677069;30;20142;-74
2023/11/18 13:08:10;;;;;;;3.60;2.05;;;8.00;99.90;;;;;;4877140;29;20410;-75
2023/11/18 13:14:40;;;;;;;2.22;2.03;;;8.00;99.90;;;;;;4783055;29;20564;-75
2023/11/18 13:17:23;;;;;;;2.50;2.30;;;7.90;99.90;;;;;;4825958;29;20038;-76
2023/11/18 13:30:24;;;;;;;1.92;1.75;;;7.80;99.90;;;;;;4911230;29;20032;-75
2023/11/18 13:33:38;;;;;;;2.25;1.92;;;7.80;99.90;;;;;;4885316;29;20401;-74
2023/11/18 13:36:32;;;;;;;2.10;1.58;;;7.70;99.90;;;;;;4882383;29;20040;-74
2023/11/18 13:39:27;;;;;;;1.48;1.38;;;7.70;99.90;;;;;;4872723;29;20302;-72
2023/11/18 13:43:08;;;;;;;1.60;1.45;;;7.70;99.90;;;;;;4918548;29;20060;-74
2023/11/18 13:53:10;;;;;;;1.30;1.30;;;7.60;99.90;;;;;;4986187;28;20057;-75
2023/11/18 13:56:33;;;;;;;;;;;;;;;;;;;;;
2023/11/18 14:02:52;;;;;;;1.77;1.50;;;7.60;99.90;;;;;;4867337;29;20108;-75
2023/11/18 14:05:21;;;;;;;2.05;1.70;;;7.60;99.90;;;;;;4904488;29;20636;-74
2023/11/18 14:08:08;;;;;;;4.43;1.75;;;7.60;99.90;;;;;;4939960;29;20036;-74
2023/11/18 14:11:11;;;;;;;1.70;1.60;;;7.60;99.90;;;;;;4961998;28;20053;-74
2023/11/18 14:14:05;;;;;;;1.52;1.42;;;7.60;99.90;;;;;;4955826;28;20073;-75
2023/11/18 14:17:01;;;;;;;;;;;;;;;;;;;;;
2023/11/18 14:19:27;;;;;;;2.05;1.60;;;7.60;99.90;;;;;;4975739;28;20027;-75
2023/11/18 14:21:54;;;;;;;1.38;1.30;;;7.60;99.90;;;;;;4970114;28;20415;-75
2023/11/18 14:24:22;;;;;;;1.30;1.20;;;7.50;99.90;;;;;;4963635;28;20712;-74
2023/11/18 14:26:50;;;;;;;1.90;1.40;;;7.60;99.90;;;;;;4970929;28;20068;-74
2023/11/18 14:29:16;;;;;;;1.40;1.30;;;7.50;99.90;;;;;;4966895;28;20380;-73
2023/11/18 14:31:42;;;;;;;1.40;1.30;;;7.50;99.90;;;;;;4988916;28;20404;-74
2023/11/18 14:34:11;;;;;;;2.42;1.33;;;7.40;99.90;;;;;;4966098;28;20035;-73
2023/11/18 14:36:37;;;;;;;1.90;1.70;;;7.40;99.90;;;;;;4987453;28;20065;-76
2023/11/18 14:39:09;;;;;;;1.55;1.45;;;7.40;99.90;;;;;;4965874;28;20034;-79
2023/11/18 14:41:36;;;;;;;3.90;1.83;;;7.40;99.90;;;;;;4973844;28;20030;-79
2023/11/18 14:44:04;;;;;;;2.40;2.20;;;7.40;99.90;;;;;;4965656;28;20036;-77
2023/11/18 14:46:33;;;;;;;1.88;1.77;;;7.40;99.90;;;;;;4978678;28;20034;-78
2023/11/18 14:48:59;;;;;;;1.80;1.70;;;7.40;99.90;;;;;;4965308;28;20030;-79
2023/11/18 14:51:27;;;;;;;2.40;1.83;;;7.30;99.90;;;;;;4973426;28;20646;-79
2023/11/18 14:53:53;;;;;;;4.55;2.20;;;7.30;99.90;;;;;;4981688;28;20035;-79
2023/11/18 14:56:22;;;;;;;3.17;2.30;;;7.40;99.90;;;;;;4959202;28;20149;-78
2023/11/18 14:58:51;;;;;;;2.58;1.98;;;7.40;99.90;;;;;;4984070;28;20481;-79
2023/11/18 15:01:20;;;;;;;3.80;2.10;;;7.30;99.90;;;;;;4979642;28;20227;-79
2023/11/18 15:04:25;;;;;;;;;;;;;;;;;;;;;
2023/11/18 15:06:52;;;;;;;4.03;1.90;;;7.30;99.90;;;;;;4952498;28;20035;-79
2023/11/18 15:09:32;;;;;;;2.78;2.20;;;7.30;99.90;;;;;;4963079;28;20102;-79
2023/11/18 15:11:58;;;;;;;3.17;1.92;;;7.20;99.90;;;;;;4964855;28;20137;-79
2023/11/18 15:14:29;;;;;;;1.90;1.80;;;7.20;99.90;;;;;;4965636;28;20041;-79
2023/11/18 15:16:55;;;;;;;2.60;2.00;;;7.10;99.90;;;;;;4957270;28;20094;-79
2023/11/18 15:19:21;;;;;;;1.73;1.52;;;7.00;99.90;;;;;;4979429;28;20057;-78
2023/11/18 15:21:46;;;;;;;2.67;1.83;;;6.90;99.90;;;;;;4976947;28;20035;-80
2023/11/18 15:24:14;;;;;;;2.33;1.67;;;6.90;99.90;;;;;;4986996;28;20488;-79
2023/11/18 15:26:42;;;;;;;2.75;1.77;;;7.00;99.90;;;;;;4965045;28;20027;-79
2023/11/18 15:29:14;;;;;;;2.50;1.90;;;6.90;99.90;;;;;;4968787;28;20037;-79
2023/11/18 15:31:44;;;;;;;3.60;2.40;;;6.90;99.90;;;;;;4979374;28;20070;-78
2023/11/18 15:34:12;;;;;;;3.45;1.88;;;6.80;99.90;;;;;;4969768;28;20033;-79
2023/11/18 15:36:42;;;;;;;3.92;2.55;;;6.90;99.90;;;;;;4973234;28;20048;-78
2023/11/18 15:39:08;;;;;;;3.70;2.45;;;6.80;99.90;;;;;;4976531;28;20110;-78
2023/11/18 15:41:35;;;;;;;4.82;2.22;;;6.80;99.90;;;;;;4992770;28;20053;-79
2023/11/18 15:44:03;;;;;;;3.88;1.80;;;6.80;99.90;;;;;;4996726;28;20023;-79
2023/11/18 15:46:29;;;;;;;2.47;2.27;;;6.80;99.90;;;;;;4993442;28;20018;-79
2023/11/18 15:48:55;;;;;;;2.88;1.70;;;6.70;99.90;;;;;;4976943;28;20034;-79
2023/11/18 15:51:22;;;;;;;1.92;1.70;;;6.70;99.90;;;;;;4991779;28;20026;-79
2023/11/18 15:53:47;;;;;;;2.20;2.03;;;6.70;99.90;;;;;;4995700;28;20027;-79
2023/11/18 15:56:15;;;;;;;4.22;2.08;;;6.70;99.90;;;;;;4994926;28;20031;-79
2023/11/18 15:58:44;;;;;;;2.83;2.33;;;6.70;99.90;;;;;;5003615;28;20451;-79